Ana Sayfa
METAR-TAF:

METAR-TAF

Havaalanları :

Chesapeake Regional Airport

Norfolk, Virginia, Amerika Birleşik Devletleri

Enlem: 36-39-56N, Boylam: 076-19-14W, yükseklik: 6 m

Güncel hava durumu gözlemi

Rapor saat 15:15 UTC de 29 dakika önce yapıldı.
Rüzgar kuzeydan 9 kt ve 18 kt'a kadar ani rüzgarlar
Sıcaklık 22°C
Nem 53%
Basınç 1019 hPa
Görüş mesafesi: 11.3 km
5000 ft yükseklikte parçalı bulutlu

METAR: KCPK 241515Z AUTO 01009G18KT 7SM SCT050 22/12 A3010 RMK AO2 T02220116

Saat: 11:44 (15:44 UTC)


TAF: eksik

4.000'den fazla havaalanı için hava durumu gözlemleri ve tahminleri (METAR ve TAF raporları).

Kullanılabilir istasyonlar harita üzerinde sarı ve kırmızı noktalarla gösterilir.

İstasyonun adını görmek için fareyi noktanın üzerinde gezdirin.

Sonrasında hava gözlem ve tahminlerini görmek için tıklayın.

Haritayı değiştirmek için: yaklaştırmak için siyah artı işaretli yeşil düğmeye ve uzaklaştırmak için de eksi işaretli düğmeye hızla tıklayın; bitişik haritalar için yeşil okları kullanın.


METAR-TAF: